首页
METAR-TAF:

METAR-TAF

机场 :

大館能代機場

大館能代, 日本

纬度: 40-11N, 经度: 140-12E, 海拔: 84米

当前天气观测

该预报发布于35分钟前的23:32 UTC
静风
温度 0°C
湿度 100%
气压 1020 hPa
能見度: 2000
少量云层高于100英尺
散云层高于300英尺
多云层高于1000英尺
小阵雪

METAR: RJSR 122332Z 00000KT 2000 R11/1600VP2000N -SHSN FEW001 SCT003 BKN010 M00/M00 Q1020 RMK 1ST001 4ST003 7ST010 A3012

时间: 09:07 (00:07 UTC)


TAF: 丢失

超过4000个机场的气象观测和天气预报(METAR&TAF报告)。

可查询的气象台以黄色和红色小点在地图上表示。

将鼠标移到小点上方,可查看气象台名称。

然后点击查看天气观测和预报。

如需切换地图:点击带黑十字的绿色按钮放大地图;点击带横线的绿色按钮缩小地图;或者点击绿色箭头查看邻近地区的地图。


METAR-TAF: